Time;durP1;ratioP1;P1;durP2;ratioP2;P2;SDS_P1;SDS_P2;PMS_P1;PMS_P2;Temp;Humidity;BMP_temperature;BMP_pressure;BME280_temperature;BME280_humidity;BME280_pressure;Samples;Min_cycle;Max_cycle;Signal;HPM_P1;HPM_P2
2021/08/18 10:59:35;;;;;;;7.65;5.15;;;;;;;35.37;25.91;93175.75;5067552;28;20572;-45
2021/08/18 11:02:07;;;;;;;7.17;5.20;;;;;;;34.82;27.18;93162.97;5045519;28;20040;-45
2021/08/18 11:04:41;;;;;;;8.95;4.50;;;;;;;33.73;27.93;93171.41;5046895;28;20107;-43
2021/08/18 11:07:07;;;;;;;6.20;5.32;;;;;;;34.12;28.06;93163.66;5046398;28;20079;-45
2021/08/18 11:10:02;;;;;;;7.18;5.35;;;;;;;33.65;28.77;93171.41;5045770;28;20460;-43
2021/08/18 11:12:39;;;;;;;7.38;4.90;;;;;;;33.00;29.53;93152.47;5029398;28;20044;-44
2021/08/18 11:15:20;;;;;;;8.23;5.55;;;;;;;33.29;29.48;93156.91;5046370;28;20528;-46
2021/08/18 11:17:47;;;;;;;8.52;5.45;;;;;;;32.57;29.38;93148.59;5046292;28;20036;-42
2021/08/18 11:20:16;;;;;;;8.90;6.63;;;;;;;32.80;30.79;93153.75;5046429;28;20021;-46
2021/08/18 11:22:42;;;;;;;8.48;5.38;;;;;;;33.69;30.03;93148.50;5045299;28;20029;-46
2021/08/18 11:25:08;;;;;;;9.38;5.35;;;;;;;34.13;28.24;93137.13;5046316;28;20056;-44
2021/08/18 11:27:34;;;;;;;8.20;5.00;;;;;;;34.24;27.68;93141.44;5029234;28;20522;-44
2021/08/18 11:29:59;;;;;;;7.35;5.30;;;;;;;33.86;27.88;93137.78;5026326;28;20018;-46
2021/08/18 11:32:25;;;;;;;5.88;5.22;;;;;;;33.53;28.84;93136.97;5026516;28;20036;-46
2021/08/18 11:34:51;;;;;;;8.10;5.65;;;;;;;33.08;29.04;93138.94;5026173;28;20448;-45
2021/08/18 11:37:16;;;;;;;8.98;5.45;;;;;;;33.66;29.08;93135.59;5026242;28;20030;-46
2021/08/18 11:39:48;;;;;;;7.95;5.03;;;;;;;33.77;27.98;93128.47;5044957;28;20040;-44
2021/08/18 11:42:14;;;;;;;15.73;5.93;;;;;;;33.56;28.67;93127.72;5046071;28;20036;-45
2021/08/18 11:44:42;;;;;;;7.32;5.55;;;;;;;32.79;29.50;93135.16;5046262;28;20053;-44
2021/08/18 11:47:17;;;;;;;8.55;5.45;;;;;;;32.72;29.62;93130.13;5046152;28;20040;-45
2021/08/18 11:49:46;;;;;;;9.77;5.57;;;;;;;32.70;30.04;93105.06;5045629;28;20516;-44
2021/08/18 11:52:20;;;;;;;10.13;5.90;;;;;;;32.16;31.03;93110.41;5044641;28;20035;-45
2021/08/18 11:54:53;;;;;;;8.68;5.30;;;;;;;32.83;29.92;93111.59;5045687;28;20029;-44
2021/08/18 11:57:19;;;;;;;7.20;5.40;;;;;;;32.77;29.66;93111.53;5051443;28;20045;-44
2021/08/18 11:59:54;;;;;;;10.60;5.28;;;;;;;32.64;30.28;93112.91;5065462;28;20163;-45
2021/08/18 12:02:24;;;;;;;11.73;5.28;;;;;;;32.40;30.50;93109.88;5065402;28;20519;-45
2021/08/18 12:04:50;;;;;;;9.10;5.93;;;;;;;32.46;31.02;93101.34;5047847;28;20024;-44
2021/08/18 12:07:16;;;;;;;5.72;5.15;;;;;;;32.62;30.99;93095.72;5065429;28;20545;-48
2021/08/18 12:09:46;;;;;;;7.22;5.75;;;;;;;32.75;30.67;93100.81;5056166;28;20045;-46
2021/08/18 12:12:20;;;;;;;8.90;5.88;;;;;;;33.07;30.05;93091.00;5051927;28;20025;-45
2021/08/18 12:14:48;;;;;;;7.30;5.85;;;;;;;32.89;28.89;93085.91;5034497;28;20032;-46
2021/08/18 12:17:14;;;;;;;7.18;5.22;;;;;;;32.92;29.39;93082.31;5051879;28;20059;-45
2021/08/18 12:19:41;;;;;;;6.85;4.80;;;;;;;32.79;30.02;93080.84;5051661;28;20119;-45
2021/08/18 12:22:10;;;;;;;12.48;6.88;;;;;;;32.59;29.58;93072.16;5051764;28;20017;-42
2021/08/18 12:24:35;;;;;;;;;;;;;;;32.48;30.73;93075.66;5052673;28;20099;-44
2021/08/18 12:27:08;;;;;;;8.45;5.93;;;;;;;31.71;30.35;93077.84;5054256;28;20454;-43
2021/08/18 12:29:35;;;;;;;8.23;6.40;;;;;;;31.03;32.62;93077.84;5053879;28;20017;-44
2021/08/18 12:32:07;;;;;;;9.45;6.07;;;;;;;31.26;32.73;93070.22;5071393;28;20036;-44
2021/08/18 12:34:57;;;;;;;12.13;5.65;;;;;;;31.31;31.96;93071.72;5071363;28;20457;-43
2021/08/18 12:37:25;;;;;;;6.80;5.88;;;;;;;31.31;32.24;93068.88;5064936;28;20033;-47
2021/08/18 12:40:23;;;;;;;11.05;6.13;;;;;;;31.25;31.31;93068.81;5051632;28;20075;-47
2021/08/18 12:42:56;;;;;;;9.20;6.53;;;;;;;30.87;32.50;93066.22;5044579;28;20057;-46
2021/08/18 12:45:27;;;;;;;7.13;5.75;;;;;;;30.62;32.91;93070.16;5051334;28;20029;-45
2021/08/18 12:47:52;;;;;;;8.65;6.43;;;;;;;30.14;33.24;93070.16;5051583;28;20025;-45
2021/08/18 12:50:29;;;;;;;10.13;6.35;;;;;;;30.41;33.39;93066.28;5051280;28;20769;-45
2021/08/18 12:52:55;;;;;;;10.07;6.75;;;;;;;30.58;33.40;93067.25;5051254;28;20059;-45
2021/08/18 12:55:21;;;;;;;10.27;6.10;;;;;;;30.66;33.02;93047.41;5051199;28;20017;-44
2021/08/18 12:57:46;;;;;;;8.77;6.43;;;;;;;30.83;32.19;93056.88;5051084;28;20048;-45
2021/08/18 13:00:13;;;;;;;8.77;5.82;;;;;;;30.98;32.28;93064.19;5051060;28;20020;-48
2021/08/18 13:02:39;;;;;;;8.93;6.10;;;;;;;31.20;32.62;93062.34;5051313;28;20412;-45
2021/08/18 13:05:05;;;;;;;7.43;6.40;;;;;;;31.22;32.42;93062.34;5051010;28;20025;-45
2021/08/18 13:07:30;;;;;;;8.02;5.97;;;;;;;31.27;31.11;93060.28;5051190;28;20025;-46
2021/08/18 13:09:56;;;;;;;10.45;6.47;;;;;;;30.93;32.21;93059.88;5050882;28;20527;-44
2021/08/18 13:12:22;;;;;;;10.15;6.43;;;;;;;30.78;32.31;93052.53;5050461;28;20025;-47
2021/08/18 13:14:47;;;;;;;8.15;5.85;;;;;;;30.28;32.47;93061.06;5050126;28;20021;-43
2021/08/18 13:17:13;;;;;;;9.82;6.80;;;;;;;30.22;34.12;93056.03;5051046;28;20062;-43
2021/08/18 13:19:39;;;;;;;8.32;6.65;;;;;;;30.44;33.02;93056.38;5050705;28;20068;-40
2021/08/18 13:22:05;;;;;;;12.20;7.32;;;;;;;30.45;32.90;93034.31;5049609;28;20064;-40
2021/08/18 13:24:30;;;;;;;10.60;6.63;;;;;;;30.57;32.73;93046.59;5061373;28;20036;-41
2021/08/18 13:26:57;;;;;;;8.68;6.25;;;;;;;30.35;33.20;93043.41;5039141;28;20033;-42
2021/08/18 13:29:24;;;;;;;9.18;6.38;;;;;;;30.42;32.74;93044.22;5040351;28;20029;-42
2021/08/18 13:31:49;;;;;;;10.27;6.55;;;;;;;30.38;32.72;93033.50;5040430;28;20105;-45
2021/08/18 13:34:14;;;;;;;14.25;7.00;;;;;;;30.12;32.38;93035.94;5039971;28;20092;-45
2021/08/18 13:36:40;;;;;;;8.90;6.32;;;;;;;29.93;33.20;93040.63;5038812;28;20458;-42
2021/08/18 13:39:06;;;;;;;8.85;6.75;;;;;;;29.69;33.73;93031.69;5037689;28;20024;-45
2021/08/18 13:41:33;;;;;;;14.63;7.60;;;;;;;29.37;34.63;93036.13;5039007;28;20416;-41
2021/08/18 13:43:59;;;;;;;11.75;7.60;;;;;;;29.52;34.54;93029.97;5039163;28;20031;-43
2021/08/18 13:46:25;;;;;;;16.27;7.68;;;;;;;29.54;34.82;93026.47;5040290;28;20112;-44
2021/08/18 13:48:52;;;;;;;10.63;7.25;;;;;;;29.57;34.50;93025.81;5038398;28;20104;-42
2021/08/18 13:51:18;;;;;;;17.40;10.50;;;;;;;29.29;34.13;93027.44;5038982;28;20017;-42
2021/08/18 13:53:43;;;;;;;11.32;6.90;;;;;;;29.10;34.47;93020.69;5038788;28;20029;-42
2021/08/18 13:56:09;;;;;;;14.13;7.10;;;;;;;29.13;35.05;93020.03;5037325;28;20024;-42
2021/08/18 13:58:34;;;;;;;16.20;6.85;;;;;;;28.98;34.66;93020.44;5037382;28;20041;-44
2021/08/18 14:01:00;;;;;;;8.55;6.97;;;;;;;28.81;35.42;93013.00;5038796;28;20025;-43
2021/08/18 14:03:25;;;;;;;13.27;6.80;;;;;;;28.97;36.04;93019.00;5039304;28;20484;-44
2021/08/18 14:05:52;;;;;;;7.57;6.70;;;;;;;29.04;35.33;93021.28;5039448;28;20089;-44
2021/08/18 14:08:17;;;;;;;12.02;7.10;;;;;;;28.79;35.89;93024.34;5038086;28;20504;-44
2021/08/18 14:10:45;;;;;;;9.60;5.95;;;;;;;28.93;36.00;93016.09;5039698;28;20063;-43
2021/08/18 14:13:11;;;;;;;9.75;6.10;;;;;;;29.11;36.40;93022.84;5037112;28;20121;-44
2021/08/18 14:15:37;;;;;;;15.73;6.45;;;;;;;29.25;35.11;93019.56;5039474;28;20021;-44
2021/08/18 14:18:03;;;;;;;13.68;6.20;;;;;;;29.30;35.13;93028.88;5017805;28;20033;-43
2021/08/18 14:20:29;;;;;;;7.75;6.47;;;;;;;29.31;35.60;93021.78;5031774;28;20494;-43
2021/08/18 14:22:54;;;;;;;12.85;6.45;;;;;;;29.22;35.02;93024.50;5025805;28;20029;-44
2021/08/18 14:25:20;;;;;;;8.13;5.93;;;;;;;29.22;35.47;93023.75;5030365;28;20056;-44
2021/08/18 14:27:46;;;;;;;18.40;6.57;;;;;;;29.15;34.76;93017.22;5035337;28;20774;-43
2021/08/18 14:30:12;;;;;;;8.85;5.90;;;;;;;29.10;34.96;93027.09;5035842;28;20100;-43
2021/08/18 14:32:37;;;;;;;11.63;5.85;;;;;;;29.13;34.73;93025.72;5037005;28;20086;-43
2021/08/18 14:35:03;;;;;;;17.90;5.53;;;;;;;29.03;34.83;93021.97;5037368;28;20041;-44
2021/08/18 14:37:28;;;;;;;8.05;5.18;;;;;;;28.91;34.41;93024.59;5035689;28;20113;-44
2021/08/18 14:39:54;;;;;;;8.63;6.05;;;;;;;28.85;35.06;93021.63;5035208;28;20505;-44
2021/08/18 14:42:20;;;;;;;7.60;6.35;;;;;;;28.83;34.94;93022.31;5038522;28;20036;-44
2021/08/18 14:44:45;;;;;;;6.40;5.13;;;;;;;28.69;34.98;93019.19;5036370;28;20119;-43
2021/08/18 14:47:11;;;;;;;6.50;5.20;;;;;;;28.70;34.22;93017.78;5035758;28;20017;-40
2021/08/18 14:49:36;;;;;;;8.60;4.60;;;;;;;28.56;35.04;93020.31;5033004;28;20183;-42
2021/08/18 14:52:03;;;;;;;6.22;4.13;;;;;;;28.49;34.54;93032.94;5046592;28;20041;-41
2021/08/18 14:54:29;;;;;;;5.03;4.47;;;;;;;28.18;34.69;93002.47;5037388;28;20033;-43
2021/08/18 14:56:54;;;;;;;7.78;4.35;;;;;;;28.24;35.39;93025.31;5027580;28;20504;-43
2021/08/18 14:59:20;;;;;;;5.47;4.18;;;;;;;28.13;35.44;93035.00;5048947;28;20029;-45
2021/08/18 15:01:46;;;;;;;8.63;4.28;;;;;;;27.91;34.91;93014.63;5048580;28;20029;-45
2021/08/18 15:04:12;;;;;;;5.22;4.38;;;;;;;27.89;34.98;93042.94;5048544;28;20056;-43
2021/08/18 15:06:38;;;;;;;5.47;3.45;;;;;;;27.72;35.38;93036.88;5045018;28;20819;-45
2021/08/18 15:09:03;;;;;;;5.10;4.07;;;;;;;27.72;35.43;93039.00;5037245;28;20028;-47
2021/08/18 15:11:30;;;;;;;7.72;4.20;;;;;;;27.75;36.04;93037.66;5047245;28;20029;-43
2021/08/18 15:13:55;;;;;;;8.80;3.78;;;;;;;27.78;35.42;93045.56;5044808;28;20604;-43
2021/08/18 15:16:21;;;;;;;7.20;3.97;;;;;;;27.67;35.52;93048.81;5048089;28;20036;-45
2021/08/18 15:18:46;;;;;;;5.18;3.92;;;;;;;27.61;35.51;93048.66;5037584;28;20071;-44
2021/08/18 15:21:12;;;;;;;8.38;4.70;;;;;;;27.62;35.98;93059.34;5067808;28;20587;-44
2021/08/18 15:23:38;;;;;;;6.68;3.50;;;;;;;27.52;35.28;93070.44;5068286;28;20035;-42
2021/08/18 15:26:03;;;;;;;10.75;4.20;;;;;;;27.42;35.21;93069.44;5062935;28;20029;-43
2021/08/18 15:28:28;;;;;;;5.72;3.92;;;;;;;27.39;35.31;93065.84;5030119;28;20025;-44
2021/08/18 15:30:55;;;;;;;6.43;3.50;;;;;;;27.43;35.69;93073.72;5047700;28;20082;-43
2021/08/18 15:33:20;;;;;;;6.25;3.83;;;;;;;27.44;35.18;93078.03;5047775;28;20122;-43
2021/08/18 15:35:46;;;;;;;4.07;3.45;;;;;;;27.29;35.47;93085.41;5047784;28;20068;-44
2021/08/18 15:38:11;;;;;;;5.47;3.45;;;;;;;27.19;35.02;93090.06;5046905;28;20037;-44
2021/08/18 15:40:37;;;;;;;4.93;3.65;;;;;;;27.06;35.70;93091.88;5044955;28;20033;-44
2021/08/18 15:43:04;;;;;;;7.35;3.65;;;;;;;26.87;35.58;93078.59;5027699;28;20041;-44
2021/08/18 15:45:32;;;;;;;4.00;3.55;;;;;;;26.73;35.96;93098.00;5031184;28;20040;-44
2021/08/18 15:47:57;;;;;;;6.63;3.22;;;;;;;26.44;36.03;93102.13;5031533;28;20542;-44
2021/08/18 15:50:24;;;;;;;8.55;3.78;;;;;;;26.42;36.37;93107.72;5031218;28;20037;-44
2021/08/18 15:52:49;;;;;;;5.13;3.38;;;;;;;26.39;36.40;93108.31;5030755;28;20036;-44
2021/08/18 15:55:16;;;;;;;5.80;3.55;;;;;;;26.28;36.46;93108.00;5029730;28;20087;-42
2021/08/18 15:57:42;;;;;;;9.10;3.80;;;;;;;26.05;36.56;93079.69;5029036;28;20520;-42
2021/08/18 16:00:09;;;;;;;5.47;3.20;;;;;;;26.16;36.82;93104.81;5011740;28;20056;-43
2021/08/18 16:02:35;;;;;;;4.93;3.33;;;;;;;26.14;37.28;93106.88;5028944;28;20040;-41
2021/08/18 16:05:02;;;;;;;8.80;3.70;;;;;;;25.93;36.98;93090.59;5028765;28;20568;-44
2021/08/18 16:07:28;;;;;;;3.85;3.50;;;;;;;25.86;36.87;93094.63;5033387;28;20029;-42
2021/08/18 16:09:54;;;;;;;16.52;3.88;;;;;;;25.82;37.90;93091.66;5029585;28;20424;-42
2021/08/18 16:12:20;;;;;;;7.25;3.45;;;;;;;25.83;37.62;93093.13;5029830;28;20045;-41
2021/08/18 16:14:45;;;;;;;6.45;3.45;;;;;;;25.79;37.35;93093.72;5028325;28;20028;-43
2021/08/18 16:17:11;;;;;;;8.23;3.58;;;;;;;25.76;37.50;93102.78;5066538;28;20063;-42
2021/08/18 16:19:36;;;;;;;4.68;3.53;;;;;;;25.46;37.39;93074.97;5047699;28;20076;-42
2021/08/18 16:22:02;;;;;;;7.53;3.58;;;;;;;25.53;36.96;93104.88;5028625;28;20421;-42
2021/08/18 16:24:28;;;;;;;5.13;3.92;;;;;;;25.43;37.25;93101.72;5028538;28;20036;-41
2021/08/18 16:26:53;;;;;;;7.05;3.58;;;;;;;25.35;37.51;93109.91;5034328;28;20033;-42
2021/08/18 16:29:19;;;;;;;7.43;3.58;;;;;;;25.17;37.52;93109.28;5033363;28;20083;-42
2021/08/18 16:31:50;;;;;;;5.35;3.53;;;;;;;25.13;37.87;93111.97;5041957;28;20025;-40
2021/08/18 16:34:17;;;;;;;8.95;3.60;;;;;;;25.06;37.53;93095.47;5032522;28;20026;-40
2021/08/18 16:36:55;;;;;;;4.82;3.25;;;;;;;25.03;38.13;93120.09;5030535;28;20053;-41
2021/08/18 16:39:20;;;;;;;12.00;3.97;;;;;;;25.00;37.73;93121.41;5046703;28;20029;-41
2021/08/18 16:41:46;;;;;;;4.93;3.63;;;;;;;24.90;37.88;93135.16;5048513;28;20420;-40
2021/08/18 16:44:11;;;;;;;4.05;3.28;;;;;;;24.85;38.46;93139.22;5029366;28;20344;-40
2021/08/18 16:46:37;;;;;;;4.40;3.05;;;;;;;24.85;37.97;93133.56;5029560;28;20485;-40
2021/08/18 16:49:04;;;;;;;5.55;3.88;;;;;;;24.75;37.48;93130.38;5029596;28;20152;-40
2021/08/18 16:51:30;;;;;;;5.35;3.25;;;;;;;24.77;37.68;93133.28;5029757;28;20108;-41
2021/08/18 16:53:55;;;;;;;4.55;3.20;;;;;;;24.73;37.93;93122.50;5030067;28;20079;-40
2021/08/18 16:56:21;;;;;;;11.48;3.55;;;;;;;24.70;37.80;93134.41;5030186;28;20443;-41
2021/08/18 16:58:46;;;;;;;8.75;3.50;;;;;;;24.64;37.89;93131.34;5029824;28;20517;-41
2021/08/18 17:01:12;;;;;;;5.05;3.00;;;;;;;24.54;37.96;93128.88;5029995;28;20103;-40
2021/08/18 17:03:37;;;;;;;6.00;3.47;;;;;;;24.52;38.14;93147.81;5030313;28;20077;-40
2021/08/18 17:06:04;;;;;;;7.43;3.67;;;;;;;24.58;37.97;93156.53;5012471;28;20033;-40
2021/08/18 17:08:33;;;;;;;6.18;3.42;;;;;;;24.45;38.03;93154.63;5030104;28;20071;-40
2021/08/18 17:10:58;;;;;;;7.32;2.85;;;;;;;24.38;38.51;93162.16;5029944;28;20021;-40
2021/08/18 17:13:24;;;;;;;6.72;3.00;;;;;;;24.36;37.90;93159.25;5067492;28;20028;-40
2021/08/18 17:15:49;;;;;;;4.82;3.13;;;;;;;24.18;38.04;93146.50;5070084;28;20059;-40
2021/08/18 17:18:15;;;;;;;13.50;4.22;;;;;;;24.27;38.06;93159.56;5032786;28;20599;-41
2021/08/18 17:20:40;;;;;;;8.07;3.10;;;;;;;24.28;38.53;93166.69;5029859;28;20021;-41
2021/08/18 17:23:06;;;;;;;5.18;3.15;;;;;;;24.32;38.89;93164.00;5029563;28;20481;-41
2021/08/18 17:25:31;;;;;;;6.22;2.90;;;;;;;24.25;38.05;93171.50;5029825;28;20029;-41
2021/08/18 17:27:57;;;;;;;6.38;3.25;;;;;;;24.21;38.68;93170.63;5030002;28;20784;-40
2021/08/18 17:30:23;;;;;;;5.00;2.97;;;;;;;24.35;39.10;93185.28;5029264;28;20578;-40
2021/08/18 17:32:49;;;;;;;8.95;2.97;;;;;;;24.40;38.09;93187.63;5029667;28;20068;-41
2021/08/18 17:35:15;;;;;;;10.50;2.90;;;;;;;24.44;38.22;93187.03;5029647;28;20025;-41
2021/08/18 17:37:43;;;;;;;4.22;3.10;;;;;;;24.43;38.51;93185.59;5028612;28;20029;-40
2021/08/18 17:40:09;;;;;;;22.70;4.38;;;;;;;24.37;37.82;93186.06;5029215;28;20782;-41
2021/08/18 17:42:35;;;;;;;11.90;3.08;;;;;;;24.40;37.79;93181.97;5035587;28;20013;-41
2021/08/18 17:45:01;;;;;;;5.20;3.13;;;;;;;24.48;38.17;93198.47;5048943;28;20471;-41
2021/08/18 17:47:26;;;;;;;11.77;3.55;;;;;;;24.46;38.28;93184.28;5047676;28;20416;-40
2021/08/18 17:49:52;;;;;;;9.35;4.65;;;;;;;24.40;37.57;93198.19;5048159;28;20029;-40
2021/08/18 17:52:18;;;;;;;6.40;2.90;;;;;;;24.31;37.56;93191.50;5048639;28;20407;-41
2021/08/18 17:54:43;;;;;;;4.47;2.90;;;;;;;24.21;38.09;93199.56;5048368;28;20492;-40
2021/08/18 17:57:09;;;;;;;6.72;2.33;;;;;;;24.10;38.18;93204.06;5048224;28;20045;-41
2021/08/18 17:59:36;;;;;;;8.55;2.72;;;;;;;23.92;38.38;93203.31;5048821;28;20025;-40
2021/08/18 18:02:01;;;;;;;6.68;2.33;;;;;;;23.79;39.00;93200.63;5048674;28;20033;-40
2021/08/18 18:04:27;;;;;;;4.80;2.28;;;;;;;23.80;38.25;93204.91;5048629;28;20090;-40
2021/08/18 18:06:52;;;;;;;8.50;2.92;;;;;;;23.71;38.29;93201.03;5048265;28;20056;-41
2021/08/18 18:09:18;;;;;;;13.18;3.45;;;;;;;23.73;38.99;93212.41;5064665;28;20519;-40
2021/08/18 18:11:43;;;;;;;9.00;3.17;;;;;;;23.49;40.87;93205.00;5068470;28;20033;-45
2021/08/18 18:14:12;;;;;;;12.80;3.53;;;;;;;23.40;42.93;93209.56;5056565;28;20128;-43
2021/08/18 18:16:38;;;;;;;10.65;3.20;;;;;;;23.48;41.97;93223.28;5046174;28;20032;-45
2021/08/18 18:19:03;;;;;;;11.55;3.70;;;;;;;23.48;41.67;93221.19;5044332;28;20035;-44
2021/08/18 18:21:30;;;;;;;10.15;3.10;;;;;;;23.48;41.91;93226.09;5046340;28;20037;-45
2021/08/18 18:24:00;;;;;;;3.33;2.10;;;;;;;23.40;40.05;93229.31;5046059;28;20039;-45
2021/08/18 18:26:26;;;;;;;7.47;2.78;;;;;;;23.16;40.35;93217.69;5020445;28;20029;-44
2021/08/18 18:28:52;;;;;;;26.27;3.60;;;;;;;23.10;39.44;93236.41;5026272;28;20032;-42
2021/08/18 18:31:18;;;;;;;28.27;3.85;;;;;;;23.05;40.78;93240.38;5034697;28;20038;-43
2021/08/18 18:33:43;;;;;;;7.45;2.53;;;;;;;23.05;40.31;93246.03;5046989;28;20071;-41
2021/08/18 18:36:09;;;;;;;4.63;2.28;;;;;;;22.97;40.28;93254.13;5046662;28;20104;-40
2021/08/18 18:38:35;;;;;;;7.05;2.40;;;;;;;22.94;42.75;93252.56;5045738;28;20029;-41
2021/08/18 18:41:01;;;;;;;3.80;2.50;;;;;;;22.92;41.45;93258.09;5046332;28;20482;-41
2021/08/18 18:43:29;;;;;;;4.72;2.33;;;;;;;22.79;41.84;93242.03;5032683;28;20033;-43
2021/08/18 18:45:55;;;;;;;2.95;1.98;;;;;;;22.89;40.66;93253.75;5026401;28;20163;-43
2021/08/18 18:48:20;;;;;;;9.55;2.72;;;;;;;22.85;41.06;93247.94;5028020;28;20143;-44
2021/08/18 18:50:46;;;;;;;5.32;2.35;;;;;;;22.80;41.20;93252.66;5033225;28;20479;-42
2021/08/18 18:53:12;;;;;;;4.80;2.70;;;;;;;22.77;41.24;93264.44;5037359;28;20482;-42
2021/08/18 18:55:39;;;;;;;4.28;2.15;;;;;;;22.77;41.33;93278.53;5046242;28;20109;-42
2021/08/18 18:58:05;;;;;;;3.88;2.15;;;;;;;22.56;42.18;93271.94;5026376;28;20053;-40
2021/08/18 19:00:32;;;;;;;5.50;2.22;;;;;;;22.51;42.79;93273.09;5026111;28;20108;-41
2021/08/18 19:02:58;;;;;;;7.65;2.42;;;;;;;22.32;43.97;93264.44;5031085;28;20087;-43
2021/08/18 19:05:24;;;;;;;8.65;2.78;;;;;;;22.19;44.35;93270.84;5037457;28;20037;-44
2021/08/18 19:07:50;;;;;;;7.95;2.78;;;;;;;22.03;44.38;93284.81;5028887;28;20720;-42
2021/08/18 19:10:15;;;;;;;6.47;2.33;;;;;;;22.05;45.34;93295.44;5025961;28;20033;-43
2021/08/18 19:12:41;;;;;;;4.85;2.25;;;;;;;21.99;45.59;93297.97;5026270;28;20033;-43
2021/08/18 19:15:08;;;;;;;5.75;2.80;;;;;;;21.99;45.91;93295.88;5025901;28;20036;-42
2021/08/18 19:17:33;;;;;;;5.80;2.60;;;;;;;21.89;45.80;93287.66;5025927;28;20029;-42
2021/08/18 19:19:59;;;;;;;6.25;2.95;;;;;;;21.93;46.56;93289.97;5027534;28;20041;-40
2021/08/18 19:22:25;;;;;;;6.10;3.00;;;;;;;21.91;46.54;93294.75;5030431;28;20033;-40
2021/08/18 19:24:52;;;;;;;7.30;2.63;;;;;;;21.87;46.30;93298.09;5030173;28;20505;-41
2021/08/18 19:27:18;;;;;;;4.72;2.42;;;;;;;21.83;46.25;93303.50;5030344;28;20443;-41
2021/08/18 19:29:43;;;;;;;4.10;2.30;;;;;;;21.84;46.60;93324.66;5030409;28;20037;-42
2021/08/18 19:32:09;;;;;;;19.42;3.67;;;;;;;21.75;47.87;93319.94;5030326;28;20036;-43
2021/08/18 19:34:34;;;;;;;18.77;3.47;;;;;;;21.71;49.31;93328.16;5029563;28;20041;-42
2021/08/18 19:37:00;;;;;;;4.47;2.70;;;;;;;21.73;49.49;93333.88;5029712;28;20029;-42
2021/08/18 19:39:25;;;;;;;11.25;4.38;;;;;;;21.36;50.21;93339.72;5046611;28;20522;-42
2021/08/18 19:41:51;;;;;;;7.07;2.95;;;;;;;21.11;51.71;93336.97;5049879;28;20052;-42
2021/08/18 19:44:16;;;;;;;5.13;3.13;;;;;;;20.98;52.11;93338.38;5036604;28;20166;-42
2021/08/18 19:46:42;;;;;;;5.53;2.97;;;;;;;20.78;53.22;93344.97;5043503;28;20040;-42
2021/08/18 19:49:08;;;;;;;5.82;3.20;;;;;;;20.46;53.79;93351.59;5064388;28;20028;-42
2021/08/18 19:51:36;;;;;;;6.60;3.28;;;;;;;20.37;53.76;93350.41;5069289;28;20113;-42
2021/08/18 19:54:03;;;;;;;6.93;3.20;;;;;;;20.50;54.20;93349.75;5068884;28;20024;-43
2021/08/18 19:56:28;;;;;;;9.35;3.75;;;;;;;20.70;54.22;93341.72;5043098;28;20516;-42
2021/08/18 19:58:54;;;;;;;4.03;2.97;;;;;;;20.45;54.10;93356.47;5053096;28;20049;-44
2021/08/18 20:01:19;;;;;;;6.05;3.33;;;;;;;20.57;54.62;93359.22;5047909;28;20114;-43
2021/08/18 20:03:45;;;;;;;6.07;3.70;;;;;;;20.42;54.13;93348.56;5044475;28;20082;-41
2021/08/18 20:06:13;;;;;;;5.40;3.10;;;;;;;19.83;56.60;93353.59;5041653;28;20037;-42
2021/08/18 20:08:38;;;;;;;7.03;2.92;;;;;;;19.48;59.19;93352.91;5041733;28;20094;-43
2021/08/18 20:11:06;;;;;;;118.95;11.38;;;;;;;19.45;59.11;93354.88;5029299;28;20779;-43
2021/08/18 20:13:31;;;;;;;7.93;3.45;;;;;;;19.53;57.23;93338.53;5033126;28;20075;-43
2021/08/18 20:15:57;;;;;;;6.95;5.03;;;;;;;19.82;56.37;93352.13;5050738;28;20055;-43
2021/08/18 20:18:22;;;;;;;6.22;3.15;;;;;;;19.93;56.34;93350.66;5037730;28;20033;-44
2021/08/18 20:20:48;;;;;;;6.10;2.80;;;;;;;19.89;55.80;93359.56;5030856;28;20463;-46
2021/08/18 20:23:14;;;;;;;7.60;2.97;;;;;;;19.66;56.47;93340.72;5030639;28;20609;-42
2021/08/18 20:25:40;;;;;;;7.30;3.38;;;;;;;19.93;56.14;93356.97;5031778;28;20034;-43
2021/08/18 20:28:05;;;;;;;5.45;3.20;;;;;;;19.87;56.77;93339.81;5050711;28;20449;-43
2021/08/18 20:30:31;;;;;;;6.55;3.17;;;;;;;20.07;56.27;93357.06;5050135;28;20102;-45
2021/08/18 20:32:57;;;;;;;5.65;3.38;;;;;;;20.07;54.74;93354.28;5052094;28;20065;-42
2021/08/18 20:35:22;;;;;;;7.40;3.15;;;;;;;19.91;54.81;93356.13;5051971;28;20480;-41
2021/08/18 20:37:48;;;;;;;4.07;2.97;;;;;;;19.61;55.40;93360.69;5033364;28;20025;-41
2021/08/18 20:40:13;;;;;;;5.07;2.50;;;;;;;19.66;54.77;93354.72;5032173;28;20417;-37
2021/08/18 20:42:39;;;;;;;3.58;2.97;;;;;;;19.54;58.10;93348.41;5038830;28;20420;-39
2021/08/18 20:45:05;;;;;;;3.65;3.28;;;;;;;19.59;58.70;93352.19;5035429;28;20075;-42
2021/08/18 20:47:32;;;;;;;4.47;3.20;;;;;;;19.67;58.19;93342.19;5031899;28;20025;-40
2021/08/18 20:49:59;;;;;;;3.60;2.90;;;;;;;19.71;56.52;93354.97;5031558;28;20095;-41
2021/08/18 20:52:24;;;;;;;4.93;3.13;;;;;;;19.45;57.89;93354.88;5031875;28;20036;-43
2021/08/18 20:54:50;;;;;;;4.53;2.90;;;;;;;19.32;58.40;93344.25;5031867;28;20424;-39
2021/08/18 20:57:15;;;;;;;3.72;2.95;;;;;;;19.38;58.33;93349.53;5050333;28;20101;-43
2021/08/18 20:59:41;;;;;;;14.38;4.78;;;;;;;18.80;60.18;93355.03;5071783;28;20028;-42
2021/08/18 21:02:06;;;;;;;3.92;3.00;;;;;;;18.41;60.80;93331.59;5070200;28;20036;-41
2021/08/18 21:04:37;;;;;;;6.90;3.03;;;;;;;18.39;61.57;93359.38;5031266;28;20109;-41
2021/08/18 21:07:05;;;;;;;8.02;3.67;;;;;;;18.12;62.37;93359.78;5038537;28;20451;-42
2021/08/18 21:09:31;;;;;;;6.43;3.45;;;;;;;18.12;62.97;93357.72;5051507;28;20021;-42
2021/08/18 21:11:56;;;;;;;4.68;3.67;;;;;;;18.40;62.96;93372.03;5051210;28;20404;-42
2021/08/18 21:14:21;;;;;;;6.05;3.28;;;;;;;18.40;60.29;93367.19;5051374;28;20140;-43
2021/08/18 21:16:47;;;;;;;5.22;2.95;;;;;;;18.48;59.70;93358.59;5051327;28;20404;-44
2021/08/18 21:19:12;;;;;;;6.93;3.35;;;;;;;18.54;60.13;93364.56;5051291;28;20236;-42
2021/08/18 21:21:38;;;;;;;7.40;2.88;;;;;;;18.66;59.98;93368.16;5050983;28;20487;-42
2021/08/18 21:24:04;;;;;;;3.75;3.00;;;;;;;18.55;59.81;93352.06;5050977;28;20029;-42
2021/08/18 21:26:31;;;;;;;5.30;3.10;;;;;;;18.64;59.85;93371.56;5042930;28;20025;-43
2021/08/18 21:28:57;;;;;;;5.38;3.30;;;;;;;18.77;59.81;93370.25;5030943;28;20061;-42
2021/08/18 21:31:22;;;;;;;8.27;3.30;;;;;;;18.66;59.41;93359.75;5031235;28;20056;-42
2021/08/18 21:33:48;;;;;;;5.35;3.10;;;;;;;18.80;59.19;93377.41;5037930;28;20029;-42
2021/08/18 21:36:13;;;;;;;6.30;3.63;;;;;;;18.30;60.28;93391.69;5038672;28;20029;-43
2021/08/18 21:38:39;;;;;;;3.95;3.08;;;;;;;18.25;61.39;93380.84;5039518;28;20044;-43
2021/08/18 21:41:05;;;;;;;6.15;3.20;;;;;;;18.30;60.50;93383.28;5039796;28;20037;-42
2021/08/18 21:43:35;;;;;;;4.90;2.72;;;;;;;18.28;60.83;93388.75;5041257;28;20021;-43
2021/08/18 21:46:00;;;;;;;4.13;3.20;;;;;;;18.31;60.83;93381.25;5041765;28;20033;-42
2021/08/18 21:48:26;;;;;;;8.82;3.83;;;;;;;18.34;60.17;93388.44;5039440;28;20021;-42
2021/08/18 21:50:52;;;;;;;3.85;3.42;;;;;;;18.37;60.52;93387.22;5041429;28;20036;-42
2021/08/18 21:53:42;;;;;;;5.55;3.17;;;;;;;18.37;60.25;93398.38;5040748;28;20036;-42
2021/08/18 21:56:09;;;;;;;8.95;3.00;;;;;;;18.26;61.13;93399.09;5039274;28;20032;-44
2021/08/18 21:58:34;;;;;;;7.10;4.03;;;;;;;18.21;61.68;93392.50;5039802;28;20527;-42
2021/08/18 22:01:00;;;;;;;6.05;3.10;;;;;;;18.18;61.52;93396.50;5041187;28;20119;-42
2021/08/18 22:03:25;;;;;;;5.05;3.22;;;;;;;18.27;60.84;93395.69;5039479;28;20031;-42
2021/08/18 22:05:51;;;;;;;4.45;3.22;;;;;;;18.32;60.55;93396.69;5040441;28;20446;-41
2021/08/18 22:08:16;;;;;;;5.57;3.65;;;;;;;18.19;61.16;93395.88;5040818;28;20017;-44
2021/08/18 22:10:42;;;;;;;7.28;3.03;;;;;;;18.11;60.93;93392.56;5039518;28;20024;-41
2021/08/18 22:13:08;;;;;;;5.35;3.10;;;;;;;17.74;61.58;93374.75;5039767;28;20420;-41
2021/08/18 22:15:34;;;;;;;8.68;3.30;;;;;;;17.77;62.06;93379.16;5040062;28;20029;-41
2021/08/18 22:18:00;;;;;;;5.35;3.60;;;;;;;17.90;62.17;93400.22;5038343;28;20068;-41
2021/08/18 22:20:26;;;;;;;4.50;3.08;;;;;;;17.92;62.14;93397.56;5020734;28;20120;-41
2021/08/18 22:22:52;;;;;;;6.40;3.47;;;;;;;17.77;61.92;93376.34;5038048;28;20489;-41
2021/08/18 22:25:17;;;;;;;5.72;3.65;;;;;;;17.73;62.16;93392.84;5039137;28;20019;-42
2021/08/18 22:27:43;;;;;;;5.63;3.65;;;;;;;17.68;62.70;93388.31;5035961;28;20092;-42